Time;durP1;ratioP1;P1;durP2;ratioP2;P2;SDS_P1;SDS_P2;PMS_P1;PMS_P2;Temp;Humidity;BMP_temperature;BMP_pressure;BME280_temperature;BME280_humidity;BME280_pressure;Samples;Min_cycle;Max_cycle;Signal;HPM_P1;HPM_P2
2023/09/30 00:00:09;;;;;;;9.37;4.53;;;;;;;17.16;69.52;95078.44;5153555;27;20683;-45
2023/09/30 00:02:36;;;;;;;17.07;6.07;;;;;;;17.16;69.81;95079.25;5161259;27;20259;-44
2023/09/30 00:05:03;;;;;;;9.77;4.97;;;;;;;17.15;69.85;95069.88;5174189;27;20178;-44
2023/09/30 00:07:30;;;;;;;8.70;5.17;;;;;;;17.15;70.00;95067.28;5153797;27;20271;-46
2023/09/30 00:09:58;;;;;;;17.87;5.47;;;;;;;17.20;69.67;95071.97;5153183;27;20628;-45
2023/09/30 00:12:26;;;;;;;7.50;4.83;;;;;;;17.09;69.58;95046.47;5153675;27;20230;-44
2023/09/30 00:14:53;;;;;;;8.17;4.77;;;;;;;17.14;69.31;95057.94;5167030;27;20947;-45
2023/09/30 00:17:20;;;;;;;9.90;4.97;;;;;;;17.24;69.73;95070.66;5162451;27;20195;-45
2023/09/30 00:19:47;;;;;;;9.50;5.37;;;;;;;17.27;69.41;95067.69;5152865;27;20187;-44
2023/09/30 00:22:13;;;;;;;13.57;5.90;;;;;;;17.30;69.41;95063.00;5172224;27;20585;-48
2023/09/30 00:24:43;;;;;;;8.83;5.47;;;;;;;17.08;69.28;95025.00;5174088;27;20247;-44
2023/09/30 00:27:11;;;;;;;9.93;5.17;;;;;;;17.32;69.11;95062.84;5172110;27;20211;-47
2023/09/30 00:29:39;;;;;;;9.17;5.67;;;;;;;17.35;69.13;95064.28;5175605;27;20175;-44
2023/09/30 00:32:06;;;;;;;8.50;5.20;;;;;;;17.37;69.09;95057.97;5175777;27;20225;-44
2023/09/30 00:34:34;;;;;;;6.93;4.63;;;;;;;17.40;69.20;95059.41;5176434;27;20187;-47
2023/09/30 00:37:01;;;;;;;9.90;5.27;;;;;;;17.41;69.17;95055.84;5175607;27;20630;-46
2023/09/30 00:39:30;;;;;;;7.03;4.97;;;;;;;17.42;69.23;95053.09;5174046;27;20231;-45
2023/09/30 00:41:59;;;;;;;10.50;4.93;;;;;;;17.44;69.29;95053.75;5176409;27;20187;-45
2023/09/30 00:44:27;;;;;;;10.27;5.20;;;;;;;17.45;69.02;95063.09;5176042;27;20190;-45
2023/09/30 00:46:55;;;;;;;10.33;5.07;;;;;;;17.46;69.05;95056.94;5173923;27;20239;-43
2023/09/30 00:49:23;;;;;;;9.10;5.17;;;;;;;17.47;68.95;95050.78;5170706;27;20716;-44
2023/09/30 00:51:50;;;;;;;8.30;4.63;;;;;;;17.48;68.89;95054.19;5164942;27;20207;-45
2023/09/30 00:54:18;;;;;;;15.20;5.07;;;;;;;17.51;68.71;95056.44;5151922;27;20198;-44
2023/09/30 00:56:49;;;;;;;10.93;5.03;;;;;;;17.45;68.85;95045.00;5152743;27;20183;-45
2023/09/30 00:59:16;;;;;;;10.13;5.20;;;;;;;17.50;68.78;95053.03;5134404;27;20188;-44
2023/09/30 01:01:45;;;;;;;13.87;5.43;;;;;;;17.44;68.92;95043.41;5153682;27;20601;-44
2023/09/30 01:04:12;;;;;;;7.83;5.17;;;;;;;17.53;68.96;95050.13;5152515;27;20272;-43
2023/09/30 01:06:39;;;;;;;8.20;5.33;;;;;;;17.52;69.06;95056.25;5152544;27;20195;-46
2023/09/30 01:09:05;;;;;;;8.07;5.30;;;;;;;17.45;69.24;95034.66;5152769;27;20216;-46
2023/09/30 01:11:32;;;;;;;6.87;4.93;;;;;;;17.52;69.36;95047.69;5152322;27;20188;-45
2023/09/30 01:13:59;;;;;;;11.03;5.13;;;;;;;17.51;69.51;95046.09;5153165;27;20191;-45
2023/09/30 01:16:26;;;;;;;11.57;6.13;;;;;;;17.50;69.49;95045.28;5152150;27;20187;-44
2023/09/30 01:18:54;;;;;;;6.57;5.10;;;;;;;17.48;69.38;95036.88;5152128;27;20198;-48
2023/09/30 01:21:21;;;;;;;10.13;5.37;;;;;;;17.53;69.44;95041.56;5151803;27;20225;-44
2023/09/30 01:23:49;;;;;;;9.53;5.50;;;;;;;17.53;69.25;95044.94;5153096;27;20622;-45
2023/09/30 01:26:16;;;;;;;8.20;5.10;;;;;;;17.49;69.23;95033.34;5151614;27;20198;-44
2023/09/30 01:28:43;;;;;;;9.57;5.53;;;;;;;17.53;69.65;95038.97;5151595;27;20227;-46
2023/09/30 01:31:10;;;;;;;7.33;5.17;;;;;;;17.56;69.60;95048.97;5150432;27;20256;-45
2023/09/30 01:33:37;;;;;;;7.90;5.17;;;;;;;17.55;69.54;95047.34;5152937;27;20207;-44
2023/09/30 01:36:04;;;;;;;8.33;5.00;;;;;;;17.55;69.65;95044.78;5149705;27;20655;-45
2023/09/30 01:38:31;;;;;;;6.40;4.87;;;;;;;17.48;69.70;95033.50;5172149;27;20239;-45
2023/09/30 01:40:59;;;;;;;7.97;5.13;;;;;;;17.57;69.79;95042.81;5172652;27;20187;-45
2023/09/30 01:43:26;;;;;;;8.50;5.07;;;;;;;17.59;69.75;95045.25;5172517;27;20658;-45
2023/09/30 01:45:53;;;;;;;10.53;4.90;;;;;;;17.59;69.88;95043.44;5171143;27;20760;-44
2023/09/30 01:48:20;;;;;;;6.30;5.23;;;;;;;17.56;69.90;95038.63;5171561;27;20695;-44
2023/09/30 01:50:47;;;;;;;8.40;5.50;;;;;;;17.59;70.00;95046.03;5172237;27;20633;-45
2023/09/30 01:53:14;;;;;;;9.60;4.70;;;;;;;17.58;69.99;95038.47;5171701;27;20384;-44
2023/09/30 01:55:42;;;;;;;8.10;5.27;;;;;;;17.58;70.20;95039.25;5172154;27;20179;-46
2023/09/30 01:58:11;;;;;;;10.57;6.07;;;;;;;17.56;70.29;95036.03;5169739;27;20222;-43
2023/09/30 02:00:37;;;;;;;8.23;5.20;;;;;;;17.56;70.12;95036.81;5171721;27;20247;-44
2023/09/30 02:03:04;;;;;;;7.23;5.00;;;;;;;17.54;70.40;95040.59;5172121;27;20629;-43
2023/09/30 02:05:31;;;;;;;9.43;4.83;;;;;;;17.51;70.36;95043.50;5172030;27;20210;-45
2023/09/30 02:07:58;;;;;;;6.77;5.00;;;;;;;17.47;70.73;95037.88;5169868;27;20639;-45
2023/09/30 02:10:24;;;;;;;8.97;5.63;;;;;;;17.45;70.94;95032.06;5171655;27;20584;-44
2023/09/30 02:12:51;;;;;;;8.23;5.77;;;;;;;17.43;71.07;95033.22;5171802;27;20214;-44
2023/09/30 02:15:19;;;;;;;9.53;5.40;;;;;;;17.39;71.15;95024.97;5154282;27;20236;-46
2023/09/30 02:17:48;;;;;;;6.97;4.87;;;;;;;17.36;71.37;95034.84;5152398;27;20271;-45
2023/09/30 02:20:19;;;;;;;6.60;4.97;;;;;;;17.32;71.30;95028.44;5150822;27;20191;-46
2023/09/30 02:22:46;;;;;;;9.43;5.00;;;;;;;17.23;71.44;95030.28;5150822;27;20183;-45
2023/09/30 02:25:13;;;;;;;8.60;4.87;;;;;;;17.21;71.63;95043.34;5150787;27;20180;-44
2023/09/30 02:27:41;;;;;;;13.27;5.47;;;;;;;17.20;71.76;95038.34;5150696;27;20738;-46
2023/09/30 02:30:09;;;;;;;10.57;5.43;;;;;;;17.15;71.68;95041.44;5151772;27;20191;-46
2023/09/30 02:32:38;;;;;;;8.37;5.03;;;;;;;17.11;71.58;95042.75;5150883;27;20227;-46
2023/09/30 02:35:06;;;;;;;12.70;5.30;;;;;;;17.06;71.69;95042.47;5151086;27;20247;-44
2023/09/30 02:37:35;;;;;;;7.50;5.53;;;;;;;17.02;71.87;95039.41;5150624;27;20179;-45
2023/09/30 02:40:04;;;;;;;12.67;5.67;;;;;;;16.96;71.72;95036.69;5150739;27;20668;-53
2023/09/30 02:42:30;;;;;;;11.40;5.03;;;;;;;16.92;71.96;95038.00;5151316;27;20203;-43
2023/09/30 02:44:57;;;;;;;9.10;5.20;;;;;;;16.88;71.93;95041.88;5154817;27;20563;-44
2023/09/30 02:47:24;;;;;;;14.80;4.93;;;;;;;16.79;71.96;95030.78;5156104;27;20187;-44
2023/09/30 02:49:52;;;;;;;8.70;4.50;;;;;;;16.78;71.99;95034.34;5175761;27;20187;-44
2023/09/30 02:52:19;;;;;;;10.53;5.03;;;;;;;16.78;72.03;95042.88;5175730;27;20678;-45
2023/09/30 02:54:45;;;;;;;13.13;5.60;;;;;;;16.73;72.01;95034.84;5174745;27;20190;-44
2023/09/30 02:57:12;;;;;;;9.80;4.93;;;;;;;16.67;71.96;95038.06;5175528;27;20191;-44
2023/09/30 02:59:40;;;;;;;8.83;5.30;;;;;;;16.63;71.53;95036.00;5175931;27;20243;-45
2023/09/30 03:02:06;;;;;;;9.97;5.57;;;;;;;16.59;71.65;95037.28;5175753;27;20243;-45
2023/09/30 03:04:33;;;;;;;10.70;5.67;;;;;;;16.55;71.69;95040.19;5175854;27;20209;-44
2023/09/30 03:07:02;;;;;;;6.80;5.17;;;;;;;16.50;72.03;95039.88;5158678;27;20646;-46
2023/09/30 03:09:28;;;;;;;11.77;5.30;;;;;;;16.46;71.80;95041.19;5154785;27;20184;-44
2023/09/30 03:11:55;;;;;;;6.07;5.00;;;;;;;16.45;72.04;95038.75;5154280;27;20237;-45
2023/09/30 03:14:22;;;;;;;8.37;5.53;;;;;;;16.45;71.67;95038.75;5154607;27;20246;-45
2023/09/30 03:16:49;;;;;;;7.67;5.43;;;;;;;16.41;71.66;95033.16;5154542;27;20268;-45
2023/09/30 03:19:16;;;;;;;7.17;4.63;;;;;;;16.37;71.68;95044.75;5154348;27;20638;-46
2023/09/30 03:21:43;;;;;;;7.17;5.40;;;;;;;16.33;71.93;95043.47;5154295;27;20271;-45
2023/09/30 03:24:12;;;;;;;12.47;5.33;;;;;;;16.30;71.79;95048.97;5159063;27;20182;-44
2023/09/30 03:26:40;;;;;;;10.50;5.50;;;;;;;16.26;72.21;95043.31;5175136;27;20251;-43
2023/09/30 03:29:08;;;;;;;9.70;4.30;;;;;;;16.23;72.02;95038.47;5175341;27;20179;-44
2023/09/30 03:31:35;;;;;;;6.23;4.93;;;;;;;16.22;71.87;95034.28;5174770;27;20191;-44
2023/09/30 03:34:03;;;;;;;7.00;5.00;;;;;;;16.11;72.00;95019.16;5174903;27;20218;-46
2023/09/30 03:36:31;;;;;;;9.27;4.77;;;;;;;16.15;72.12;95033.34;5174650;27;20251;-45
2023/09/30 03:39:05;;;;;;;9.97;5.10;;;;;;;16.14;72.39;95029.13;5173950;27;20183;-43
2023/09/30 03:41:35;;;;;;;10.43;5.10;;;;;;;16.12;72.24;95035.44;5174887;27;20190;-44
2023/09/30 03:44:02;;;;;;;10.63;5.40;;;;;;;16.05;72.44;95028.34;5160381;27;20222;-44
2023/09/30 03:46:29;;;;;;;7.33;5.27;;;;;;;16.05;72.48;95033.50;5154244;27;20266;-44
2023/09/30 03:48:56;;;;;;;8.80;4.47;;;;;;;16.02;72.71;95026.09;5153962;27;20179;-45
2023/09/30 03:51:25;;;;;;;14.77;4.90;;;;;;;16.02;72.77;95025.31;5153793;27;20180;-42
2023/09/30 03:53:53;;;;;;;6.37;4.20;;;;;;;15.86;73.04;95004.69;5154011;27;20295;-45
2023/09/30 03:56:22;;;;;;;11.33;5.30;;;;;;;15.97;73.06;95024.97;5173880;27;20704;-44
2023/09/30 03:58:51;;;;;;;8.13;5.07;;;;;;;15.95;73.23;95021.75;5174587;27;20564;-45
2023/09/30 04:01:19;;;;;;;6.90;5.13;;;;;;;15.92;73.13;95024.66;5174365;27;20222;-45
2023/09/30 04:03:46;;;;;;;11.00;4.73;;;;;;;15.89;73.69;95035.28;5174321;27;20187;-45
2023/09/30 04:06:13;;;;;;;11.90;4.73;;;;;;;15.85;73.72;95028.84;5174187;27;20209;-44
2023/09/30 04:08:40;;;;;;;12.20;5.77;;;;;;;15.80;73.85;95032.72;5172319;27;20624;-43
2023/09/30 04:11:07;;;;;;;10.13;5.67;;;;;;;15.75;74.12;95022.06;5174221;27;20197;-44
2023/09/30 04:13:35;;;;;;;15.70;5.73;;;;;;;15.75;74.40;95031.56;5165688;27;20207;-44
2023/09/30 04:16:03;;;;;;;11.70;4.77;;;;;;;15.73;74.63;95038.69;5153400;27;20655;-43
2023/09/30 04:18:31;;;;;;;9.50;4.90;;;;;;;15.73;74.74;95044.66;5153132;27;20272;-43
2023/09/30 04:20:58;;;;;;;8.40;5.03;;;;;;;15.70;75.04;95041.56;5153476;27;20696;-44
2023/09/30 04:23:25;;;;;;;17.87;5.73;;;;;;;15.68;75.05;95038.38;5152857;27;20252;-43
2023/09/30 04:25:51;;;;;;;9.00;5.47;;;;;;;15.65;75.37;95043.84;5153765;27;20188;-45
2023/09/30 04:28:20;;;;;;;10.20;5.77;;;;;;;15.64;75.25;95048.19;5153043;27;20242;-43
2023/09/30 04:30:49;;;;;;;10.77;5.97;;;;;;;15.66;75.27;95050.59;5158080;27;20198;-44
2023/09/30 04:33:18;;;;;;;9.10;5.83;;;;;;;15.67;75.62;95053.03;5173973;27;20207;-46
2023/09/30 04:35:46;;;;;;;14.20;5.53;;;;;;;15.68;75.84;95053.84;5173408;27;20735;-44
2023/09/30 04:38:13;;;;;;;15.70;6.20;;;;;;;15.68;76.07;95056.41;5173295;27;20183;-46
2023/09/30 04:40:40;;;;;;;8.20;5.70;;;;;;;15.69;76.46;95056.25;5171664;27;20179;-44
2023/09/30 04:43:06;;;;;;;8.87;5.07;;;;;;;15.69;76.55;95058.81;5142155;27;20201;-45
2023/09/30 04:45:33;;;;;;;13.17;5.33;;;;;;;15.70;76.56;95067.34;5153152;27;20187;-41
2023/09/30 04:48:01;;;;;;;9.33;5.70;;;;;;;15.78;77.56;95065.59;5139561;27;20188;-44
2023/09/30 04:50:30;;;;;;;6.37;5.03;;;;;;;15.81;77.24;95067.06;5152056;27;20191;-43
2023/09/30 04:52:57;;;;;;;15.20;5.93;;;;;;;15.74;77.20;95060.91;5156786;27;20207;-43
2023/09/30 04:55:24;;;;;;;10.13;5.87;;;;;;;15.79;77.18;95064.63;5152059;27;20199;-43
2023/09/30 04:57:51;;;;;;;13.73;5.63;;;;;;;15.89;76.85;95077.38;5152358;27;20191;-43
2023/09/30 05:00:24;;;;;;;15.87;6.13;;;;;;;15.95;76.40;95069.00;5152130;27;20239;-44
2023/09/30 05:02:53;;;;;;;12.90;6.30;;;;;;;16.06;76.08;95073.00;5152686;27;20203;-46
2023/09/30 05:05:20;;;;;;;15.10;6.67;;;;;;;16.20;75.39;95071.56;5152470;27;20777;-45
2023/09/30 05:07:49;;;;;;;11.77;5.70;;;;;;;16.36;74.70;95068.13;5162283;27;20187;-44
2023/09/30 05:10:17;;;;;;;12.77;6.67;;;;;;;16.55;73.79;95075.53;5158062;27;20190;-44
2023/09/30 05:12:46;;;;;;;21.30;7.33;;;;;;;16.70;72.96;95079.03;5152207;27;20187;-43
2023/09/30 05:15:15;;;;;;;13.03;6.90;;;;;;;16.87;71.62;95081.59;5151880;27;20215;-44
2023/09/30 05:17:43;;;;;;;18.17;5.93;;;;;;;16.98;70.83;95076.09;5151926;27;20199;-45
2023/09/30 05:20:12;;;;;;;7.53;6.00;;;;;;;17.19;70.01;95089.25;5139828;27;20570;-45
2023/09/30 05:22:40;;;;;;;12.13;6.03;;;;;;;17.34;69.28;95083.34;5172782;27;20211;-44
2023/09/30 05:25:09;;;;;;;9.17;6.23;;;;;;;17.53;68.66;95083.75;5172522;27;20195;-43
2023/09/30 05:27:37;;;;;;;12.17;6.57;;;;;;;17.72;67.97;95082.47;5171645;27;20263;-45
2023/09/30 05:30:05;;;;;;;14.37;7.17;;;;;;;17.89;67.77;95074.66;5172577;27;20175;-46
2023/09/30 05:32:32;;;;;;;13.03;6.77;;;;;;;18.03;67.83;95084.22;5171956;27;20191;-44
2023/09/30 05:35:02;;;;;;;9.47;6.40;;;;;;;18.28;66.88;95082.25;5138915;27;20552;-44
2023/09/30 05:37:30;;;;;;;9.23;7.30;;;;;;;18.49;65.73;95084.16;5151194;27;20188;-43
2023/09/30 05:39:57;;;;;;;12.63;7.20;;;;;;;18.61;65.45;95087.09;5151459;27;20278;-45
2023/09/30 05:42:26;;;;;;;10.50;7.27;;;;;;;18.68;65.14;95099.19;5159758;27;20259;-45
2023/09/30 05:44:53;;;;;;;13.83;6.90;;;;;;;18.70;64.83;95099.06;5172240;27;20231;-44
2023/09/30 05:47:20;;;;;;;14.87;7.47;;;;;;;18.81;64.68;95098.59;5171781;27;20888;-46
2023/09/30 05:49:47;;;;;;;12.77;7.60;;;;;;;18.95;64.35;95097.78;5172294;27;20579;-44
2023/09/30 05:52:13;;;;;;;14.57;7.63;;;;;;;19.11;64.11;95099.41;5171719;27;20198;-44
2023/09/30 05:54:41;;;;;;;19.57;8.80;;;;;;;19.31;63.51;95102.25;5151006;27;20223;-43
2023/09/30 05:57:08;;;;;;;18.80;7.67;;;;;;;19.36;62.53;95086.94;5150867;27;20195;-46
2023/09/30 05:59:36;;;;;;;20.33;8.20;;;;;;;19.54;62.50;95100.31;5151021;27;20563;-45
2023/09/30 06:02:04;;;;;;;17.73;8.03;;;;;;;19.73;62.25;95095.53;5152749;27;20192;-43
2023/09/30 06:04:33;;;;;;;13.93;7.70;;;;;;;20.04;61.57;95103.03;5157776;27;20183;-45
2023/09/30 06:07:00;;;;;;;17.93;7.93;;;;;;;20.21;60.81;95104.41;5171834;27;20186;-46
2023/09/30 06:09:26;;;;;;;11.80;8.20;;;;;;;20.39;59.76;95103.13;5166445;27;20295;-45
2023/09/30 06:11:53;;;;;;;20.00;8.63;;;;;;;20.51;59.53;95107.66;5139296;27;20260;-45
2023/09/30 06:14:20;;;;;;;21.13;7.45;;;;;;;20.66;59.25;95107.56;5149179;27;20215;-46
2023/09/30 06:16:49;;;;;;;20.15;8.98;;;;;;;19.99;58.80;94994.56;5152231;27;20666;-44
2023/09/30 06:19:17;;;;;;;13.98;8.80;;;;;;;20.79;57.96;95117.25;5149865;27;20213;-45
2023/09/30 06:21:44;;;;;;;13.70;7.60;;;;;;;20.82;58.17;95113.47;5151168;27;20196;-45
2023/09/30 06:24:11;;;;;;;14.43;8.98;;;;;;;20.91;58.03;95113.13;5150740;27;20198;-45
2023/09/30 06:26:39;;;;;;;13.93;8.95;;;;;;;20.97;57.61;95109.75;5149614;27;20195;-46
2023/09/30 06:29:06;;;;;;;18.55;8.43;;;;;;;21.05;56.70;95127.00;5149051;27;20183;-45
2023/09/30 06:31:33;;;;;;;22.00;8.45;;;;;;;21.13;56.33;95121.63;5152207;27;20184;-44
2023/09/30 06:34:02;;;;;;;24.70;8.57;;;;;;;21.28;55.92;95122.28;5149443;27;20207;-44
2023/09/30 06:36:28;;;;;;;13.05;7.72;;;;;;;21.48;55.35;95124.22;5150166;27;20191;-45
2023/09/30 06:38:55;;;;;;;20.83;9.18;;;;;;;21.74;54.50;95136.53;5149405;27;20220;-44
2023/09/30 06:41:22;;;;;;;16.75;7.32;;;;;;;21.88;54.07;95132.94;5149453;27;20194;-45
2023/09/30 06:43:51;;;;;;;19.52;8.40;;;;;;;22.05;52.68;95126.38;5149766;27;20195;-46
2023/09/30 06:46:18;;;;;;;13.05;7.55;;;;;;;22.31;52.33;95124.84;5149409;27;20640;-45
2023/09/30 06:48:45;;;;;;;22.42;8.57;;;;;;;22.55;51.79;95126.06;5149660;27;20195;-45
2023/09/30 06:51:17;;;;;;;21.20;7.85;;;;;;;22.71;51.48;95130.03;5149267;27;21997;-45
2023/09/30 06:53:43;;;;;;;11.07;6.28;;;;;;;22.89;50.42;95126.84;5149547;27;20226;-44
2023/09/30 06:56:10;;;;;;;17.13;7.05;;;;;;;23.09;49.61;95127.59;5149490;27;20584;-46
2023/09/30 06:58:37;;;;;;;15.23;7.07;;;;;;;23.14;48.68;95127.78;5149534;27;20187;-46
2023/09/30 07:01:04;;;;;;;16.65;7.30;;;;;;;23.34;47.68;95134.78;5151621;27;20721;-45
2023/09/30 07:03:32;;;;;;;14.05;6.40;;;;;;;23.37;47.35;95139.59;5149793;27;20549;-44
2023/09/30 07:06:00;;;;;;;8.55;5.57;;;;;;;23.32;46.81;95140.22;5151905;27;20207;-46
2023/09/30 07:08:29;;;;;;;14.38;7.15;;;;;;;23.28;47.95;95150.25;5149428;27;20275;-44
2023/09/30 07:10:57;;;;;;;11.75;6.38;;;;;;;23.42;47.89;95137.94;5148690;27;20184;-46
2023/09/30 07:13:24;;;;;;;16.35;7.40;;;;;;;23.73;46.21;95145.09;5149271;27;20247;-45
2023/09/30 07:15:51;;;;;;;9.95;6.30;;;;;;;23.90;45.96;95142.00;5148981;27;20191;-46
2023/09/30 07:18:18;;;;;;;19.13;6.78;;;;;;;24.13;46.12;95138.84;5171326;27;20236;-45
2023/09/30 07:20:45;;;;;;;9.10;6.80;;;;;;;24.26;44.62;95139.53;5154089;27;20233;-45
2023/09/30 07:23:13;;;;;;;13.23;6.30;;;;;;;24.20;44.99;95131.75;5153494;27;20179;-44
2023/09/30 07:25:45;;;;;;;11.07;6.38;;;;;;;24.39;44.91;95135.28;5171500;27;20202;-44
2023/09/30 07:28:13;;;;;;;19.38;7.00;;;;;;;24.61;43.84;95143.53;5170062;27;20222;-44
2023/09/30 07:30:40;;;;;;;13.77;5.85;;;;;;;24.78;43.63;95142.81;5173172;27;20183;-47
2023/09/30 07:33:07;;;;;;;8.50;5.00;;;;;;;24.96;43.17;95143.88;5175333;27;20239;-46
2023/09/30 07:35:35;;;;;;;12.23;5.20;;;;;;;25.05;42.64;95139.16;5172799;27;20293;-46
2023/09/30 07:38:02;;;;;;;17.42;5.72;;;;;;;25.18;42.58;95141.66;5171906;27;20191;-43
2023/09/30 07:40:29;;;;;;;15.65;5.72;;;;;;;25.41;42.25;95146.25;5150382;27;20219;-46
2023/09/30 07:42:57;;;;;;;8.55;4.72;;;;;;;25.56;41.24;95133.59;5151384;27;20188;-45
2023/09/30 07:45:24;;;;;;;22.92;6.18;;;;;;;25.59;41.15;95142.81;5151430;27;20192;-44
2023/09/30 07:47:51;;;;;;;9.73;5.05;;;;;;;25.63;41.32;95142.13;5151834;27;20184;-49
2023/09/30 07:50:20;;;;;;;10.23;5.10;;;;;;;25.72;40.04;95147.88;5151150;27;20188;-44
2023/09/30 07:52:49;;;;;;;10.50;4.15;;;;;;;25.61;40.58;95141.56;5150681;27;20195;-45
2023/09/30 07:55:19;;;;;;;12.30;4.75;;;;;;;25.62;40.44;95147.63;5150677;27;20227;-46
2023/09/30 08:00:34;;;;;;;12.07;4.50;;;;;;;26.03;39.09;95144.28;5134833;27;20214;-45
2023/09/30 08:03:06;;;;;;;9.27;4.80;;;;;;;26.31;38.70;95150.75;5150458;27;20279;-45
2023/09/30 08:05:33;;;;;;;9.18;4.70;;;;;;;26.52;38.78;95150.25;5115635;27;20230;-44
2023/09/30 08:08:01;;;;;;;11.05;5.18;;;;;;;26.55;38.54;95151.63;5150692;27;20183;-46
2023/09/30 08:10:29;;;;;;;13.48;4.95;;;;;;;26.41;39.16;95149.16;5150841;27;20219;-45
2023/09/30 08:13:02;;;;;;;15.68;6.00;;;;;;;26.40;38.97;95152.03;5131746;27;20187;-45
2023/09/30 08:15:32;;;;;;;16.58;5.53;;;;;;;26.57;38.63;95142.50;5166097;27;20623;-47
2023/09/30 08:18:05;;;;;;;24.50;5.82;;;;;;;26.76;38.93;95143.19;5149968;27;20213;-46
2023/09/30 08:20:33;;;;;;;9.10;4.85;;;;;;;26.73;37.54;95143.69;5152723;27;20266;-46
2023/09/30 08:23:03;;;;;;;10.10;4.60;;;;;;;26.69;38.24;95150.41;5152513;27;20241;-45
2023/09/30 08:25:32;;;;;;;14.88;4.88;;;;;;;26.77;37.33;95150.06;5134461;27;20675;-46
2023/09/30 08:28:00;;;;;;;14.70;4.60;;;;;;;26.69;37.21;95140.69;5151846;27;20235;-46
2023/09/30 08:30:28;;;;;;;15.60;4.90;;;;;;;26.85;37.13;95148.91;5152484;27;20184;-45
2023/09/30 08:33:05;;;;;;;14.45;5.72;;;;;;;26.82;36.69;95154.63;5098862;27;20660;-46
2023/09/30 08:35:36;;;;;;;17.23;5.22;;;;;;;26.86;37.12;95150.53;5152536;27;20267;-45
2023/09/30 08:38:03;;;;;;;10.80;4.93;;;;;;;26.96;36.52;95146.28;5152169;27;20567;-44
2023/09/30 08:40:31;;;;;;;10.82;5.25;;;;;;;27.10;36.56;95149.50;5151951;27;20652;-45
2023/09/30 08:45:47;;;;;;;8.77;4.68;;;;;;;27.13;36.80;95141.19;5152336;27;20697;-46
2023/09/30 08:48:20;;;;;;;9.55;5.50;;;;;;;27.20;36.33;95138.41;5152578;27;20283;-46
2023/09/30 08:50:48;;;;;;;9.25;5.30;;;;;;;27.23;35.49;95132.72;5152396;27;20187;-44
2023/09/30 08:53:17;;;;;;;9.93;4.97;;;;;;;27.22;35.65;95139.00;5134297;27;20660;-47
2023/09/30 08:55:47;;;;;;;6.97;5.25;;;;;;;27.22;36.15;95129.28;5152790;27;20225;-46
2023/09/30 08:58:14;;;;;;;11.70;5.75;;;;;;;27.31;35.62;95127.09;5134094;27;20195;-45
2023/09/30 09:00:45;;;;;;;8.70;6.22;;;;;;;27.43;34.80;95133.13;5153116;27;20195;-46
2023/09/30 09:03:13;;;;;;;9.25;5.60;;;;;;;27.40;34.60;95128.34;5133844;27;20230;-46
2023/09/30 09:05:41;;;;;;;9.88;5.47;;;;;;;27.36;34.04;95129.84;5152398;27;20195;-45
2023/09/30 09:08:09;;;;;;;7.03;5.75;;;;;;;27.15;34.47;95130.44;5152173;27;20700;-46
2023/09/30 09:10:36;;;;;;;13.93;5.75;;;;;;;27.15;34.45;95122.56;5152721;27;20184;-47
2023/09/30 09:13:04;;;;;;;11.48;6.18;;;;;;;27.09;34.31;95124.28;5151833;27;20659;-47
2023/09/30 09:15:31;;;;;;;14.18;5.97;;;;;;;27.02;34.39;95120.94;5152402;27;20398;-46
2023/09/30 09:17:59;;;;;;;8.95;6.90;;;;;;;26.88;34.34;95123.00;5151851;27;21032;-46
2023/09/30 09:20:26;;;;;;;12.13;6.35;;;;;;;26.79;34.06;95105.22;5152036;27;20180;-46
2023/09/30 09:22:57;;;;;;;12.52;6.43;;;;;;;26.81;34.63;95116.28;5151614;27;20326;-46
2023/09/30 09:25:26;;;;;;;16.58;6.22;;;;;;;26.69;34.72;95122.34;5151767;27;20751;-46
2023/09/30 09:27:54;;;;;;;13.23;6.35;;;;;;;26.67;34.50;95113.06;5151723;27;20310;-47
2023/09/30 09:30:24;;;;;;;6.88;5.47;;;;;;;26.48;35.09;95107.16;5151791;27;20184;-45
2023/09/30 09:33:00;;;;;;;13.13;5.65;;;;;;;26.43;35.22;95118.28;5151915;27;20187;-47
2023/09/30 09:35:32;;;;;;;9.88;5.80;;;;;;;26.35;35.07;95113.38;5151591;27;20313;-47
2023/09/30 09:38:04;;;;;;;13.93;5.35;;;;;;;26.24;35.06;95106.25;5132480;27;20201;-46
2023/09/30 09:40:33;;;;;;;9.02;5.18;;;;;;;26.28;34.77;95113.44;5115719;27;20198;-44
2023/09/30 09:43:04;;;;;;;8.90;5.15;;;;;;;26.10;35.31;95097.00;5151311;27;20272;-48
2023/09/30 09:45:39;;;;;;;10.27;5.15;;;;;;;25.97;35.32;95092.75;5151426;27;20223;-46
2023/09/30 09:48:06;;;;;;;9.10;5.55;;;;;;;25.89;35.36;95085.19;5151315;27;20187;-48
2023/09/30 09:50:35;;;;;;;8.52;5.40;;;;;;;26.09;35.18;95105.91;5151376;27;20183;-47
2023/09/30 09:53:05;;;;;;;11.95;5.43;;;;;;;25.98;35.12;95095.13;5150677;27;20188;-46
2023/09/30 09:55:33;;;;;;;7.20;5.10;;;;;;;25.88;35.73;95105.38;5151400;27;20222;-46
2023/09/30 09:58:04;;;;;;;11.13;5.28;;;;;;;25.76;35.67;95104.50;5150792;27;20194;-46
2023/09/30 10:00:33;;;;;;;9.43;5.25;;;;;;;25.73;35.41;95100.53;5151093;27;20253;-44
2023/09/30 10:03:00;;;;;;;9.45;4.70;;;;;;;25.74;35.95;95098.69;5151537;27;20184;-45
2023/09/30 10:05:29;;;;;;;7.22;5.35;;;;;;;25.77;35.58;95091.19;5150923;27;20835;-46
2023/09/30 10:08:01;;;;;;;6.38;4.80;;;;;;;25.72;35.79;95085.00;5150759;27;20267;-45
2023/09/30 10:10:31;;;;;;;7.97;4.90;;;;;;;25.75;35.71;95095.03;5150782;27;20192;-46
2023/09/30 10:12:59;;;;;;;7.45;4.95;;;;;;;25.74;36.07;95089.00;5150894;27;20188;-48
2023/09/30 10:15:40;;;;;;;16.17;4.25;;;;;;;25.71;35.57;95089.44;5150581;27;20215;-47
2023/09/30 10:18:09;;;;;;;8.50;3.80;;;;;;;25.72;35.51;95077.94;5150587;27;20283;-46
2023/09/30 10:20:47;;;;;;;13.77;5.07;;;;;;;25.77;35.51;95079.91;5151252;27;20281;-45
2023/09/30 10:23:22;;;;;;;8.48;4.32;;;;;;;25.76;35.95;95073.88;5150536;27;20188;-47
2023/09/30 10:25:57;;;;;;;7.65;4.03;;;;;;;25.71;36.04;95084.19;5132090;27;20195;-45
2023/09/30 10:28:40;;;;;;;7.45;4.30;;;;;;;25.67;35.72;95077.00;5150055;27;20691;-45
2023/09/30 10:31:21;;;;;;;13.93;3.97;;;;;;;25.67;35.26;95072.56;5148040;27;20180;-45
2023/09/30 10:34:20;;;;;;;8.02;4.65;;;;;;;25.60;35.25;95066.59;5150616;27;20195;-45
2023/09/30 10:36:50;;;;;;;7.05;3.65;;;;;;;25.44;34.69;95041.84;5150711;27;20180;-46
2023/09/30 10:39:56;;;;;;;9.65;4.50;;;;;;;25.66;33.86;95070.19;5150926;27;20195;-45
2023/09/30 10:42:52;;;;;;;9.20;5.53;;;;;;;25.69;33.51;95054.81;5150917;27;20183;-46
2023/09/30 10:45:44;;;;;;;8.00;4.85;;;;;;;25.57;34.51;95058.41;5150465;27;20192;-46
2023/09/30 10:48:41;;;;;;;7.90;4.38;;;;;;;25.65;34.08;95056.28;5066561;28;20190;-46
2023/09/30 10:51:15;;;;;;;11.10;3.90;;;;;;;25.70;34.10;95048.56;5066835;28;20269;-45
2023/09/30 10:53:46;;;;;;;11.35;4.10;;;;;;;25.74;33.96;95054.16;5066505;28;20193;-46
2023/09/30 10:56:14;;;;;;;7.97;4.07;;;;;;;25.87;34.09;95048.75;5066183;28;20222;-45
2023/09/30 10:58:43;;;;;;;6.85;4.18;;;;;;;25.86;34.03;95047.13;5049246;28;20194;-46
2023/09/30 11:01:10;;;;;;;8.60;4.35;;;;;;;25.93;33.87;95058.31;5066498;28;20663;-45
2023/09/30 11:03:37;;;;;;;7.65;3.92;;;;;;;25.89;33.76;95056.38;5066814;28;20205;-46
2023/09/30 11:06:05;;;;;;;10.45;4.43;;;;;;;25.86;33.45;95046.34;5070332;28;20191;-46
2023/09/30 11:08:33;;;;;;;7.72;3.88;;;;;;;25.95;33.68;95043.19;5070932;28;20198;-46
2023/09/30 11:11:02;;;;;;;7.80;3.67;;;;;;;25.92;33.29;95037.59;5070647;28;20202;-46
2023/09/30 11:13:34;;;;;;;4.40;3.40;;;;;;;25.90;33.68;95037.78;5070098;28;20198;-45
2023/09/30 11:16:12;;;;;;;14.38;4.43;;;;;;;25.84;33.13;95041.31;5053571;28;20245;-46
2023/09/30 11:18:39;;;;;;;11.20;4.18;;;;;;;25.76;33.35;95039.00;5069563;28;20652;-47
2023/09/30 11:21:08;;;;;;;10.75;4.03;;;;;;;25.47;33.82;95024.88;5069765;28;20187;-45
2023/09/30 11:23:40;;;;;;;6.07;3.53;;;;;;;25.38;33.63;95034.88;5069812;28;20194;-46
2023/09/30 11:26:07;;;;;;;9.02;3.95;;;;;;;25.42;34.01;95029.97;5146862;27;20190;-44
2023/09/30 11:28:40;;;;;;;6.65;3.70;;;;;;;25.47;34.13;95024.88;5154079;27;20571;-46
2023/09/30 11:31:11;;;;;;;9.15;3.75;;;;;;;25.52;34.00;95025.84;5154385;27;20283;-46
2023/09/30 11:33:56;;;;;;;10.07;3.88;;;;;;;25.58;34.14;95021.50;5154103;27;20191;-46
2023/09/30 11:36:24;;;;;;;5.72;3.80;;;;;;;25.68;34.05;95021.75;5154164;27;20215;-46
2023/09/30 11:38:53;;;;;;;7.13;3.70;;;;;;;25.78;34.25;95016.03;5153767;27;20686;-47
2023/09/30 11:41:21;;;;;;;9.23;4.03;;;;;;;25.82;34.01;95016.34;5153879;27;20187;-45